KMBL/MBL METAR and TAF weather

Enter ICAO airport designator
Station Type Date Time Source
KMBL METAR 2020/10/20 15:56 UTC NOAA

KMBL 201556Z AUTO 10008KT 10SM CLR 05/01 A3031 RMK AO2 SLP269 T00500011


Station Type Date Time Source
KMBL Decoded METAR 2020/10/20 15:56 UTC NOAA

Manistee, Manistee County-Blacker Airport, MI, United States (KMBL) 44-16N 086-15W
Oct 20, 2020 - 11:56 AM EDT / 2020.10.20 1556 UTC
Wind: from the E (100 degrees) at 9 MPH (8 KT):0
Visibility: 10 mile(s):0
Sky conditions: clear
Temperature: 41.0 F (5.0 C)
Dew Point: 34.0 F (1.1 C)
Relative Humidity: 75%
Pressure (altimeter): 30.31 in. Hg (1026 hPa)
ob: KMBL 201556Z AUTO 10008KT 10SM CLR 05/01 A3031 RMK AO2 SLP269 T00500011
cycle: 16

Station Type Date Time Source
KMBL TAF 2020/10/20 12:30 UTC NOAA

TAF KMBL 201128Z 2012/2112 00000KT 3SM BR SCT001 OVC040
FM201300 VRB03KT P6SM BKN060
FM202300 12006KT P6SM VCSH OVC050
FM210100 12007KT P6SM VCSH OVC030
FM210300 12009KT 6SM -RA BR OVC022
FM210400 12008KT 5SM -RA BR OVC016
FM210600 13005KT 5SM -RA BR OVC007
FM210800 21005KT P6SM OVC009
FM210900 23006KT P6SM OVC010
FM211100 26011G21KT P6SM OVC012

Example: see airport list